sensor_id;sensor_type;location;lat;lon;timestamp;P1;durP1;ratioP1;P2;durP2;ratioP2
16254;SDS011;8235;52.198;9.904;2022-08-26T00:00:54;15.15;;;10.35;;
16254;SDS011;8235;52.198;9.904;2022-08-26T00:03:22;13.38;;;10.40;;
16254;SDS011;8235;52.198;9.904;2022-08-26T00:05:49;15.82;;;9.93;;
16254;SDS011;8235;52.198;9.904;2022-08-26T00:08:16;9.93;;;8.98;;
16254;SDS011;8235;52.198;9.904;2022-08-26T00:10:44;12.75;;;9.55;;
16254;SDS011;8235;52.198;9.904;2022-08-26T00:13:11;15.73;;;9.80;;
16254;SDS011;8235;52.198;9.904;2022-08-26T00:15:37;15.70;;;9.55;;
16254;SDS011;8235;52.198;9.904;2022-08-26T00:18:05;13.93;;;9.77;;
16254;SDS011;8235;52.198;9.904;2022-08-26T00:20:33;17.52;;;10.27;;
16254;SDS011;8235;52.198;9.904;2022-08-26T00:23:00;11.23;;;8.93;;
16254;SDS011;8235;52.198;9.904;2022-08-26T00:25:28;15.43;;;9.35;;
16254;SDS011;8235;52.198;9.904;2022-08-26T00:27:54;10.40;;;9.30;;
16254;SDS011;8235;52.198;9.904;2022-08-26T00:30:22;11.10;;;9.13;;
16254;SDS011;8235;52.198;9.904;2022-08-26T00:32:50;15.02;;;9.68;;
16254;SDS011;8235;52.198;9.904;2022-08-26T00:35:17;10.18;;;9.20;;
16254;SDS011;8235;52.198;9.904;2022-08-26T00:37:46;13.55;;;9.13;;
16254;SDS011;8235;52.198;9.904;2022-08-26T00:40:14;12.98;;;8.68;;
16254;SDS011;8235;52.198;9.904;2022-08-26T00:42:42;12.40;;;8.68;;
16254;SDS011;8235;52.198;9.904;2022-08-26T00:45:09;11.13;;;9.40;;
16254;SDS011;8235;52.198;9.904;2022-08-26T00:47:37;14.23;;;8.93;;
16254;SDS011;8235;52.198;9.904;2022-08-26T00:50:09;11.77;;;8.75;;
16254;SDS011;8235;52.198;9.904;2022-08-26T00:52:38;11.32;;;9.30;;
16254;SDS011;8235;52.198;9.904;2022-08-26T00:55:08;11.38;;;9.00;;
16254;SDS011;8235;52.198;9.904;2022-08-26T00:57:38;13.93;;;10.05;;
16254;SDS011;8235;52.198;9.904;2022-08-26T01:00:07;14.63;;;9.68;;
16254;SDS011;8235;52.198;9.904;2022-08-26T01:02:36;12.60;;;9.93;;
16254;SDS011;8235;52.198;9.904;2022-08-26T01:05:03;11.98;;;9.60;;
16254;SDS011;8235;52.198;9.904;2022-08-26T01:07:32;13.57;;;9.77;;
16254;SDS011;8235;52.198;9.904;2022-08-26T01:10:00;10.60;;;9.35;;
16254;SDS011;8235;52.198;9.904;2022-08-26T01:12:32;11.85;;;9.10;;
16254;SDS011;8235;52.198;9.904;2022-08-26T01:15:04;11.60;;;10.27;;
16254;SDS011;8235;52.198;9.904;2022-08-26T01:17:31;17.08;;;9.70;;
16254;SDS011;8235;52.198;9.904;2022-08-26T01:19:59;11.85;;;9.35;;
16254;SDS011;8235;52.198;9.904;2022-08-26T01:22:36;13.07;;;9.07;;
16254;SDS011;8235;52.198;9.904;2022-08-26T01:25:09;15.68;;;9.73;;
16254;SDS011;8235;52.198;9.904;2022-08-26T01:27:37;20.17;;;9.73;;
16254;SDS011;8235;52.198;9.904;2022-08-26T01:30:04;12.32;;;9.48;;
16254;SDS011;8235;52.198;9.904;2022-08-26T01:32:32;12.48;;;9.85;;
16254;SDS011;8235;52.198;9.904;2022-08-26T01:35:00;11.73;;;9.75;;
16254;SDS011;8235;52.198;9.904;2022-08-26T01:37:28;12.80;;;9.27;;
16254;SDS011;8235;52.198;9.904;2022-08-26T01:40:03;16.45;;;10.27;;
16254;SDS011;8235;52.198;9.904;2022-08-26T01:42:31;11.23;;;9.40;;
16254;SDS011;8235;52.198;9.904;2022-08-26T01:44:58;10.65;;;8.60;;
16254;SDS011;8235;52.198;9.904;2022-08-26T01:47:29;13.35;;;9.55;;
16254;SDS011;8235;52.198;9.904;2022-08-26T01:49:59;16.52;;;9.65;;
16254;SDS011;8235;52.198;9.904;2022-08-26T01:52:27;13.55;;;9.02;;
16254;SDS011;8235;52.198;9.904;2022-08-26T01:54:58;11.30;;;8.63;;
16254;SDS011;8235;52.198;9.904;2022-08-26T01:57:27;14.82;;;9.70;;
16254;SDS011;8235;52.198;9.904;2022-08-26T01:59:54;12.60;;;9.15;;
16254;SDS011;8235;52.198;9.904;2022-08-26T02:02:23;14.35;;;10.45;;
16254;SDS011;8235;52.198;9.904;2022-08-26T02:04:52;13.15;;;10.02;;
16254;SDS011;8235;52.198;9.904;2022-08-26T02:07:22;15.82;;;10.32;;
16254;SDS011;8235;52.198;9.904;2022-08-26T02:09:49;15.60;;;10.85;;
16254;SDS011;8235;52.198;9.904;2022-08-26T02:12:16;14.80;;;10.60;;
16254;SDS011;8235;52.198;9.904;2022-08-26T02:14:47;12.07;;;8.90;;
16254;SDS011;8235;52.198;9.904;2022-08-26T02:17:17;11.18;;;9.90;;
16254;SDS011;8235;52.198;9.904;2022-08-26T02:19:49;13.50;;;9.80;;
16254;SDS011;8235;52.198;9.904;2022-08-26T02:22:17;11.45;;;10.25;;
16254;SDS011;8235;52.198;9.904;2022-08-26T02:24:47;14.63;;;9.85;;
16254;SDS011;8235;52.198;9.904;2022-08-26T02:27:16;13.25;;;9.70;;
16254;SDS011;8235;52.198;9.904;2022-08-26T02:29:46;13.57;;;9.80;;
16254;SDS011;8235;52.198;9.904;2022-08-26T02:32:15;19.15;;;9.63;;
16254;SDS011;8235;52.198;9.904;2022-08-26T02:34:41;12.38;;;9.77;;
16254;SDS011;8235;52.198;9.904;2022-08-26T02:37:09;18.13;;;9.90;;
16254;SDS011;8235;52.198;9.904;2022-08-26T02:39:37;13.35;;;9.75;;
16254;SDS011;8235;52.198;9.904;2022-08-26T02:42:05;18.23;;;10.07;;
16254;SDS011;8235;52.198;9.904;2022-08-26T02:44:32;13.65;;;9.23;;
16254;SDS011;8235;52.198;9.904;2022-08-26T02:47:00;17.50;;;10.35;;
16254;SDS011;8235;52.198;9.904;2022-08-26T02:49:27;12.52;;;10.48;;
16254;SDS011;8235;52.198;9.904;2022-08-26T02:51:54;11.93;;;9.75;;
16254;SDS011;8235;52.198;9.904;2022-08-26T02:54:22;12.15;;;9.95;;
16254;SDS011;8235;52.198;9.904;2022-08-26T02:56:48;15.73;;;10.70;;
16254;SDS011;8235;52.198;9.904;2022-08-26T02:59:15;12.45;;;10.25;;
16254;SDS011;8235;52.198;9.904;2022-08-26T03:01:42;13.77;;;9.75;;
16254;SDS011;8235;52.198;9.904;2022-08-26T03:04:12;16.75;;;10.52;;
16254;SDS011;8235;52.198;9.904;2022-08-26T03:06:39;11.27;;;10.10;;
16254;SDS011;8235;52.198;9.904;2022-08-26T03:09:05;16.23;;;10.73;;
16254;SDS011;8235;52.198;9.904;2022-08-26T03:11:33;12.88;;;10.98;;
16254;SDS011;8235;52.198;9.904;2022-08-26T03:14:00;14.73;;;10.70;;
16254;SDS011;8235;52.198;9.904;2022-08-26T03:16:29;12.13;;;10.13;;
16254;SDS011;8235;52.198;9.904;2022-08-26T03:18:57;15.82;;;10.88;;
16254;SDS011;8235;52.198;9.904;2022-08-26T03:21:26;13.50;;;10.02;;
16254;SDS011;8235;52.198;9.904;2022-08-26T03:23:52;13.52;;;10.15;;
16254;SDS011;8235;52.198;9.904;2022-08-26T03:26:19;18.38;;;10.02;;
16254;SDS011;8235;52.198;9.904;2022-08-26T03:28:46;17.85;;;10.43;;
16254;SDS011;8235;52.198;9.904;2022-08-26T03:31:30;16.23;;;11.20;;
16254;SDS011;8235;52.198;9.904;2022-08-26T03:33:56;16.35;;;11.55;;
16254;SDS011;8235;52.198;9.904;2022-08-26T03:36:24;18.30;;;10.52;;
16254;SDS011;8235;52.198;9.904;2022-08-26T03:38:52;21.55;;;11.90;;
16254;SDS011;8235;52.198;9.904;2022-08-26T03:41:19;14.05;;;11.10;;
16254;SDS011;8235;52.198;9.904;2022-08-26T03:43:45;14.50;;;11.25;;
16254;SDS011;8235;52.198;9.904;2022-08-26T03:46:15;14.82;;;11.40;;
16254;SDS011;8235;52.198;9.904;2022-08-26T03:48:43;15.20;;;12.77;;
16254;SDS011;8235;52.198;9.904;2022-08-26T03:51:10;18.30;;;11.93;;
16254;SDS011;8235;52.198;9.904;2022-08-26T03:53:38;15.70;;;12.40;;
16254;SDS011;8235;52.198;9.904;2022-08-26T03:56:05;21.17;;;12.93;;
16254;SDS011;8235;52.198;9.904;2022-08-26T03:58:32;12.85;;;11.38;;
16254;SDS011;8235;52.198;9.904;2022-08-26T04:00:58;20.10;;;12.80;;
16254;SDS011;8235;52.198;9.904;2022-08-26T04:03:25;14.77;;;12.75;;
16254;SDS011;8235;52.198;9.904;2022-08-26T04:06:10;14.00;;;11.50;;
16254;SDS011;8235;52.198;9.904;2022-08-26T04:08:37;13.23;;;11.88;;
16254;SDS011;8235;52.198;9.904;2022-08-26T04:11:05;13.60;;;11.75;;
16254;SDS011;8235;52.198;9.904;2022-08-26T04:13:32;15.40;;;11.10;;
16254;SDS011;8235;52.198;9.904;2022-08-26T04:15:59;14.80;;;10.98;;
16254;SDS011;8235;52.198;9.904;2022-08-26T04:18:26;11.95;;;10.40;;
16254;SDS011;8235;52.198;9.904;2022-08-26T04:20:55;18.33;;;10.93;;
16254;SDS011;8235;52.198;9.904;2022-08-26T04:23:22;14.25;;;10.95;;
16254;SDS011;8235;52.198;9.904;2022-08-26T04:25:50;18.27;;;12.07;;
16254;SDS011;8235;52.198;9.904;2022-08-26T04:28:17;17.40;;;12.10;;
16254;SDS011;8235;52.198;9.904;2022-08-26T04:30:46;19.55;;;11.60;;
16254;SDS011;8235;52.198;9.904;2022-08-26T04:33:13;18.73;;;12.23;;
16254;SDS011;8235;52.198;9.904;2022-08-26T04:35:39;17.70;;;10.75;;
16254;SDS011;8235;52.198;9.904;2022-08-26T04:38:08;18.52;;;11.32;;
16254;SDS011;8235;52.198;9.904;2022-08-26T04:40:34;15.60;;;11.32;;
16254;SDS011;8235;52.198;9.904;2022-08-26T04:43:02;18.45;;;11.15;;
16254;SDS011;8235;52.198;9.904;2022-08-26T04:45:29;24.40;;;11.13;;
16254;SDS011;8235;52.198;9.904;2022-08-26T04:47:56;19.00;;;11.95;;
16254;SDS011;8235;52.198;9.904;2022-08-26T04:50:22;20.15;;;11.38;;
16254;SDS011;8235;52.198;9.904;2022-08-26T04:52:50;16.40;;;11.80;;
16254;SDS011;8235;52.198;9.904;2022-08-26T04:55:17;19.90;;;10.52;;
16254;SDS011;8235;52.198;9.904;2022-08-26T04:57:44;18.27;;;11.73;;
16254;SDS011;8235;52.198;9.904;2022-08-26T05:00:12;19.55;;;10.27;;
16254;SDS011;8235;52.198;9.904;2022-08-26T05:02:39;14.00;;;11.45;;
16254;SDS011;8235;52.198;9.904;2022-08-26T05:05:06;20.75;;;11.15;;
16254;SDS011;8235;52.198;9.904;2022-08-26T05:07:33;21.92;;;12.02;;
16254;SDS011;8235;52.198;9.904;2022-08-26T05:10:00;16.88;;;10.75;;
16254;SDS011;8235;52.198;9.904;2022-08-26T05:12:28;19.50;;;10.65;;
16254;SDS011;8235;52.198;9.904;2022-08-26T05:14:55;22.15;;;11.52;;
16254;SDS011;8235;52.198;9.904;2022-08-26T05:17:23;16.75;;;11.85;;
16254;SDS011;8235;52.198;9.904;2022-08-26T05:19:51;20.38;;;11.90;;
16254;SDS011;8235;52.198;9.904;2022-08-26T05:22:18;20.85;;;12.70;;
16254;SDS011;8235;52.198;9.904;2022-08-26T05:24:45;16.02;;;12.18;;
16254;SDS011;8235;52.198;9.904;2022-08-26T05:27:11;15.93;;;11.68;;
16254;SDS011;8235;52.198;9.904;2022-08-26T05:29:38;15.20;;;12.23;;
16254;SDS011;8235;52.198;9.904;2022-08-26T05:32:05;19.63;;;12.30;;
16254;SDS011;8235;52.198;9.904;2022-08-26T05:34:33;19.13;;;12.38;;
16254;SDS011;8235;52.198;9.904;2022-08-26T05:37:01;24.67;;;12.10;;
16254;SDS011;8235;52.198;9.904;2022-08-26T05:39:28;21.23;;;11.43;;
16254;SDS011;8235;52.198;9.904;2022-08-26T05:41:56;16.98;;;12.35;;
16254;SDS011;8235;52.198;9.904;2022-08-26T05:44:23;19.13;;;11.18;;
16254;SDS011;8235;52.198;9.904;2022-08-26T05:46:50;24.90;;;12.05;;
16254;SDS011;8235;52.198;9.904;2022-08-26T05:49:16;27.70;;;13.15;;
16254;SDS011;8235;52.198;9.904;2022-08-26T05:51:45;30.85;;;12.88;;
16254;SDS011;8235;52.198;9.904;2022-08-26T05:54:12;16.83;;;12.80;;
16254;SDS011;8235;52.198;9.904;2022-08-26T05:56:40;16.83;;;12.13;;
16254;SDS011;8235;52.198;9.904;2022-08-26T05:59:10;21.13;;;13.15;;
16254;SDS011;8235;52.198;9.904;2022-08-26T06:01:39;19.63;;;12.25;;
16254;SDS011;8235;52.198;9.904;2022-08-26T06:04:06;23.02;;;13.23;;
16254;SDS011;8235;52.198;9.904;2022-08-26T06:06:33;19.88;;;12.38;;
16254;SDS011;8235;52.198;9.904;2022-08-26T06:09:06;18.27;;;11.95;;
16254;SDS011;8235;52.198;9.904;2022-08-26T06:11:34;23.10;;;12.68;;
16254;SDS011;8235;52.198;9.904;2022-08-26T06:14:01;16.75;;;12.68;;
16254;SDS011;8235;52.198;9.904;2022-08-26T06:16:30;19.20;;;12.27;;
16254;SDS011;8235;52.198;9.904;2022-08-26T06:18:58;17.70;;;13.00;;
16254;SDS011;8235;52.198;9.904;2022-08-26T06:21:27;19.55;;;12.65;;
16254;SDS011;8235;52.198;9.904;2022-08-26T06:23:56;20.98;;;12.20;;
16254;SDS011;8235;52.198;9.904;2022-08-26T06:26:46;19.80;;;12.98;;
16254;SDS011;8235;52.198;9.904;2022-08-26T06:29:14;15.38;;;12.45;;
16254;SDS011;8235;52.198;9.904;2022-08-26T06:31:41;22.95;;;12.68;;
16254;SDS011;8235;52.198;9.904;2022-08-26T06:34:08;17.70;;;12.15;;
16254;SDS011;8235;52.198;9.904;2022-08-26T06:36:34;15.30;;;12.57;;
16254;SDS011;8235;52.198;9.904;2022-08-26T06:39:02;21.67;;;13.13;;
16254;SDS011;8235;52.198;9.904;2022-08-26T06:41:31;21.75;;;12.85;;
16254;SDS011;8235;52.198;9.904;2022-08-26T06:44:00;17.00;;;12.27;;
16254;SDS011;8235;52.198;9.904;2022-08-26T06:46:28;19.77;;;12.73;;
16254;SDS011;8235;52.198;9.904;2022-08-26T06:48:55;20.35;;;11.55;;
16254;SDS011;8235;52.198;9.904;2022-08-26T06:51:23;20.15;;;13.38;;
16254;SDS011;8235;52.198;9.904;2022-08-26T06:53:52;18.13;;;12.63;;
16254;SDS011;8235;52.198;9.904;2022-08-26T06:56:20;23.02;;;12.00;;
16254;SDS011;8235;52.198;9.904;2022-08-26T06:58:48;20.90;;;12.23;;
16254;SDS011;8235;52.198;9.904;2022-08-26T07:01:18;24.13;;;12.07;;
16254;SDS011;8235;52.198;9.904;2022-08-26T07:03:47;22.33;;;12.77;;
16254;SDS011;8235;52.198;9.904;2022-08-26T07:06:15;26.25;;;13.65;;
16254;SDS011;8235;52.198;9.904;2022-08-26T07:08:43;22.27;;;12.50;;
16254;SDS011;8235;52.198;9.904;2022-08-26T07:11:10;21.13;;;12.43;;
16254;SDS011;8235;52.198;9.904;2022-08-26T07:13:37;20.48;;;13.02;;
16254;SDS011;8235;52.198;9.904;2022-08-26T07:16:04;25.90;;;13.30;;
16254;SDS011;8235;52.198;9.904;2022-08-26T07:18:33;18.42;;;11.68;;
16254;SDS011;8235;52.198;9.904;2022-08-26T07:21:00;27.02;;;12.60;;
16254;SDS011;8235;52.198;9.904;2022-08-26T07:23:27;26.58;;;12.35;;
16254;SDS011;8235;52.198;9.904;2022-08-26T07:25:54;39.85;;;14.07;;
16254;SDS011;8235;52.198;9.904;2022-08-26T07:28:20;64.78;;;16.58;;
16254;SDS011;8235;52.198;9.904;2022-08-26T07:30:47;85.53;;;21.10;;
16254;SDS011;8235;52.198;9.904;2022-08-26T07:33:14;46.65;;;13.43;;
16254;SDS011;8235;52.198;9.904;2022-08-26T07:35:43;42.65;;;14.65;;
16254;SDS011;8235;52.198;9.904;2022-08-26T07:38:09;16.58;;;12.10;;
16254;SDS011;8235;52.198;9.904;2022-08-26T07:40:36;16.80;;;11.43;;
16254;SDS011;8235;52.198;9.904;2022-08-26T07:43:05;18.73;;;11.80;;
16254;SDS011;8235;52.198;9.904;2022-08-26T07:45:31;18.92;;;12.20;;
16254;SDS011;8235;52.198;9.904;2022-08-26T07:47:58;21.02;;;12.02;;
16254;SDS011;8235;52.198;9.904;2022-08-26T07:50:25;18.60;;;12.30;;
16254;SDS011;8235;52.198;9.904;2022-08-26T07:52:53;17.55;;;12.90;;
16254;SDS011;8235;52.198;9.904;2022-08-26T07:55:20;20.30;;;12.52;;
16254;SDS011;8235;52.198;9.904;2022-08-26T07:57:47;20.73;;;12.60;;
16254;SDS011;8235;52.198;9.904;2022-08-26T08:00:15;20.65;;;13.13;;
16254;SDS011;8235;52.198;9.904;2022-08-26T08:02:42;23.42;;;12.45;;
16254;SDS011;8235;52.198;9.904;2022-08-26T08:05:09;15.00;;;12.23;;
16254;SDS011;8235;52.198;9.904;2022-08-26T08:07:37;18.52;;;11.77;;
16254;SDS011;8235;52.198;9.904;2022-08-26T08:10:05;16.60;;;11.88;;
16254;SDS011;8235;52.198;9.904;2022-08-26T08:12:33;33.58;;;13.68;;
16254;SDS011;8235;52.198;9.904;2022-08-26T08:15:00;32.22;;;12.85;;
16254;SDS011;8235;52.198;9.904;2022-08-26T08:17:26;26.25;;;11.00;;
16254;SDS011;8235;52.198;9.904;2022-08-26T08:19:53;13.07;;;9.93;;
16254;SDS011;8235;52.198;9.904;2022-08-26T08:22:19;13.65;;;8.88;;
16254;SDS011;8235;52.198;9.904;2022-08-26T08:24:47;14.77;;;9.77;;
16254;SDS011;8235;52.198;9.904;2022-08-26T08:27:15;15.57;;;8.68;;
16254;SDS011;8235;52.198;9.904;2022-08-26T08:29:42;9.98;;;8.40;;
16254;SDS011;8235;52.198;9.904;2022-08-26T08:32:10;17.52;;;9.63;;
16254;SDS011;8235;52.198;9.904;2022-08-26T08:34:37;16.90;;;9.02;;
16254;SDS011;8235;52.198;9.904;2022-08-26T08:37:04;16.55;;;8.13;;
16254;SDS011;8235;52.198;9.904;2022-08-26T08:39:32;12.30;;;9.10;;
16254;SDS011;8235;52.198;9.904;2022-08-26T08:42:02;13.93;;;9.18;;
16254;SDS011;8235;52.198;9.904;2022-08-26T08:44:45;14.55;;;9.63;;
16254;SDS011;8235;52.198;9.904;2022-08-26T08:47:16;14.60;;;9.05;;
16254;SDS011;8235;52.198;9.904;2022-08-26T08:49:48;15.52;;;9.10;;
16254;SDS011;8235;52.198;9.904;2022-08-26T08:52:17;11.65;;;8.68;;
16254;SDS011;8235;52.198;9.904;2022-08-26T08:54:53;15.95;;;9.50;;
16254;SDS011;8235;52.198;9.904;2022-08-26T08:57:21;17.55;;;10.43;;
16254;SDS011;8235;52.198;9.904;2022-08-26T09:00:00;16.25;;;10.70;;
16254;SDS011;8235;52.198;9.904;2022-08-26T09:02:31;16.52;;;9.95;;
16254;SDS011;8235;52.198;9.904;2022-08-26T09:05:06;17.17;;;10.15;;
16254;SDS011;8235;52.198;9.904;2022-08-26T09:07:36;17.75;;;10.90;;
16254;SDS011;8235;52.198;9.904;2022-08-26T09:10:14;16.42;;;10.15;;
16254;SDS011;8235;52.198;9.904;2022-08-26T09:12:52;18.50;;;9.88;;
16254;SDS011;8235;52.198;9.904;2022-08-26T09:15:21;21.58;;;10.30;;
16254;SDS011;8235;52.198;9.904;2022-08-26T09:17:55;18.48;;;10.50;;
16254;SDS011;8235;52.198;9.904;2022-08-26T09:20:34;15.93;;;10.43;;
16254;SDS011;8235;52.198;9.904;2022-08-26T09:23:09;21.88;;;10.48;;
16254;SDS011;8235;52.198;9.904;2022-08-26T09:25:43;17.80;;;9.73;;
16254;SDS011;8235;52.198;9.904;2022-08-26T09:28:13;17.67;;;10.25;;
16254;SDS011;8235;52.198;9.904;2022-08-26T09:30:45;22.17;;;9.90;;
16254;SDS011;8235;52.198;9.904;2022-08-26T09:33:18;17.20;;;9.52;;
16254;SDS011;8235;52.198;9.904;2022-08-26T09:35:52;22.77;;;9.60;;
16254;SDS011;8235;52.198;9.904;2022-08-26T09:38:38;18.40;;;9.07;;
16254;SDS011;8235;52.198;9.904;2022-08-26T09:41:06;22.48;;;10.05;;
16254;SDS011;8235;52.198;9.904;2022-08-26T09:43:48;17.27;;;8.80;;
16254;SDS011;8235;52.198;9.904;2022-08-26T09:46:38;17.85;;;9.05;;
16254;SDS011;8235;52.198;9.904;2022-08-26T09:49:19;15.40;;;8.98;;
16254;SDS011;8235;52.198;9.904;2022-08-26T09:51:53;14.63;;;8.60;;
16254;SDS011;8235;52.198;9.904;2022-08-26T09:54:30;14.65;;;8.05;;
16254;SDS011;8235;52.198;9.904;2022-08-26T09:57:08;22.42;;;8.70;;
16254;SDS011;8235;52.198;9.904;2022-08-26T09:59:39;13.52;;;8.20;;
16254;SDS011;8235;52.198;9.904;2022-08-26T10:02:18;11.48;;;8.25;;
16254;SDS011;8235;52.198;9.904;2022-08-26T10:04:54;10.88;;;7.00;;
16254;SDS011;8235;52.198;9.904;2022-08-26T10:07:33;15.48;;;7.47;;
16254;SDS011;8235;52.198;9.904;2022-08-26T10:10:03;13.73;;;8.45;;
16254;SDS011;8235;52.198;9.904;2022-08-26T10:12:33;15.30;;;6.90;;
16254;SDS011;8235;52.198;9.904;2022-08-26T10:15:06;11.48;;;6.75;;
16254;SDS011;8235;52.198;9.904;2022-08-26T10:17:38;11.13;;;7.65;;
16254;SDS011;8235;52.198;9.904;2022-08-26T10:20:09;13.00;;;7.18;;
16254;SDS011;8235;52.198;9.904;2022-08-26T10:22:41;12.15;;;7.13;;
16254;SDS011;8235;52.198;9.904;2022-08-26T10:25:13;14.45;;;7.43;;
16254;SDS011;8235;52.198;9.904;2022-08-26T10:27:42;11.32;;;6.82;;
16254;SDS011;8235;52.198;9.904;2022-08-26T10:30:15;12.70;;;6.72;;
16254;SDS011;8235;52.198;9.904;2022-08-26T10:32:46;13.02;;;7.30;;
16254;SDS011;8235;52.198;9.904;2022-08-26T10:35:17;11.77;;;7.10;;
16254;SDS011;8235;52.198;9.904;2022-08-26T10:37:45;8.80;;;6.50;;
16254;SDS011;8235;52.198;9.904;2022-08-26T10:40:19;13.25;;;7.07;;
16254;SDS011;8235;52.198;9.904;2022-08-26T10:42:51;11.25;;;6.75;;
16254;SDS011;8235;52.198;9.904;2022-08-26T10:45:24;8.95;;;6.57;;
16254;SDS011;8235;52.198;9.904;2022-08-26T10:47:55;10.02;;;7.30;;
16254;SDS011;8235;52.198;9.904;2022-08-26T10:50:29;14.05;;;6.68;;
16254;SDS011;8235;52.198;9.904;2022-08-26T10:52:59;14.13;;;5.95;;
16254;SDS011;8235;52.198;9.904;2022-08-26T10:55:33;10.48;;;6.05;;
16254;SDS011;8235;52.198;9.904;2022-08-26T10:58:19;13.07;;;6.20;;
16254;SDS011;8235;52.198;9.904;2022-08-26T11:00:55;14.30;;;6.03;;
16254;SDS011;8235;52.198;9.904;2022-08-26T11:03:45;11.85;;;5.82;;
16254;SDS011;8235;52.198;9.904;2022-08-26T11:06:23;10.18;;;5.60;;
16254;SDS011;8235;52.198;9.904;2022-08-26T11:08:52;8.20;;;5.70;;
16254;SDS011;8235;52.198;9.904;2022-08-26T11:14:36;13.18;;;5.85;;
16254;SDS011;8235;52.198;9.904;2022-08-26T11:17:03;9.55;;;5.70;;
16254;SDS011;8235;52.198;9.904;2022-08-26T11:19:59;8.60;;;5.32;;
16254;SDS011;8235;52.198;9.904;2022-08-26T11:22:28;11.18;;;5.75;;
16254;SDS011;8235;52.198;9.904;2022-08-26T11:25:00;10.32;;;5.53;;
16254;SDS011;8235;52.198;9.904;2022-08-26T11:30:38;12.80;;;6.07;;
16254;SDS011;8235;52.198;9.904;2022-08-26T11:33:09;14.07;;;6.55;;
16254;SDS011;8235;52.198;9.904;2022-08-26T11:35:50;13.35;;;6.20;;
16254;SDS011;8235;52.198;9.904;2022-08-26T11:38:19;17.73;;;6.75;;
16254;SDS011;8235;52.198;9.904;2022-08-26T11:41:03;18.42;;;6.43;;
16254;SDS011;8235;52.198;9.904;2022-08-26T11:43:33;13.13;;;5.57;;
16254;SDS011;8235;52.198;9.904;2022-08-26T11:46:03;21.30;;;6.20;;
16254;SDS011;8235;52.198;9.904;2022-08-26T11:48:32;11.65;;;5.90;;
16254;SDS011;8235;52.198;9.904;2022-08-26T11:51:02;16.80;;;5.88;;
16254;SDS011;8235;52.198;9.904;2022-08-26T11:53:31;13.45;;;5.78;;
16254;SDS011;8235;52.198;9.904;2022-08-26T11:55:59;15.70;;;6.25;;
16254;SDS011;8235;52.198;9.904;2022-08-26T11:58:29;14.88;;;6.80;;
16254;SDS011;8235;52.198;9.904;2022-08-26T12:00:57;8.23;;;5.22;;
16254;SDS011;8235;52.198;9.904;2022-08-26T12:03:29;8.68;;;5.15;;
16254;SDS011;8235;52.198;9.904;2022-08-26T12:06:08;17.33;;;5.95;;
16254;SDS011;8235;52.198;9.904;2022-08-26T12:08:36;11.10;;;5.03;;
16254;SDS011;8235;52.198;9.904;2022-08-26T12:11:08;10.63;;;5.28;;
16254;SDS011;8235;52.198;9.904;2022-08-26T12:13:37;14.30;;;6.32;;
16254;SDS011;8235;52.198;9.904;2022-08-26T12:16:04;15.82;;;6.03;;
16254;SDS011;8235;52.198;9.904;2022-08-26T12:18:32;15.55;;;5.88;;
16254;SDS011;8235;52.198;9.904;2022-08-26T12:21:02;17.67;;;5.70;;
16254;SDS011;8235;52.198;9.904;2022-08-26T12:23:39;13.18;;;5.65;;
16254;SDS011;8235;52.198;9.904;2022-08-26T12:26:08;11.00;;;5.93;;
16254;SDS011;8235;52.198;9.904;2022-08-26T12:28:40;12.60;;;6.65;;
16254;SDS011;8235;52.198;9.904;2022-08-26T12:31:08;8.88;;;5.40;;
16254;SDS011;8235;52.198;9.904;2022-08-26T12:33:35;11.35;;;5.30;;
16254;SDS011;8235;52.198;9.904;2022-08-26T12:36:02;12.52;;;5.43;;
16254;SDS011;8235;52.198;9.904;2022-08-26T12:38:31;14.02;;;6.28;;
16254;SDS011;8235;52.198;9.904;2022-08-26T12:41:01;9.75;;;5.50;;
16254;SDS011;8235;52.198;9.904;2022-08-26T12:43:35;17.63;;;6.10;;
16254;SDS011;8235;52.198;9.904;2022-08-26T12:46:07;10.52;;;5.97;;
16254;SDS011;8235;52.198;9.904;2022-08-26T12:48:36;14.18;;;6.45;;
16254;SDS011;8235;52.198;9.904;2022-08-26T12:51:05;14.30;;;7.00;;
16254;SDS011;8235;52.198;9.904;2022-08-26T12:53:39;15.27;;;6.60;;
16254;SDS011;8235;52.198;9.904;2022-08-26T12:56:17;11.63;;;6.53;;
16254;SDS011;8235;52.198;9.904;2022-08-26T12:58:58;14.70;;;6.78;;
16254;SDS011;8235;52.198;9.904;2022-08-26T13:01:33;14.25;;;6.03;;
16254;SDS011;8235;52.198;9.904;2022-08-26T13:04:02;12.75;;;6.20;;
16254;SDS011;8235;52.198;9.904;2022-08-26T13:06:31;10.32;;;5.72;;
16254;SDS011;8235;52.198;9.904;2022-08-26T13:09:01;9.93;;;6.38;;
16254;SDS011;8235;52.198;9.904;2022-08-26T13:11:31;12.52;;;6.25;;
16254;SDS011;8235;52.198;9.904;2022-08-26T13:14:00;10.95;;;6.13;;
16254;SDS011;8235;52.198;9.904;2022-08-26T13:16:28;12.55;;;6.60;;
16254;SDS011;8235;52.198;9.904;2022-08-26T13:18:56;15.88;;;6.85;;
16254;SDS011;8235;52.198;9.904;2022-08-26T13:21:25;12.50;;;6.22;;
16254;SDS011;8235;52.198;9.904;2022-08-26T13:23:53;14.85;;;7.00;;
16254;SDS011;8235;52.198;9.904;2022-08-26T13:26:22;15.48;;;6.43;;
16254;SDS011;8235;52.198;9.904;2022-08-26T13:28:49;14.90;;;6.28;;
16254;SDS011;8235;52.198;9.904;2022-08-26T13:31:16;13.38;;;6.20;;
16254;SDS011;8235;52.198;9.904;2022-08-26T13:33:43;12.95;;;6.38;;
16254;SDS011;8235;52.198;9.904;2022-08-26T13:36:10;13.80;;;6.00;;
16254;SDS011;8235;52.198;9.904;2022-08-26T13:38:37;13.85;;;7.03;;
16254;SDS011;8235;52.198;9.904;2022-08-26T13:41:04;15.52;;;6.55;;
16254;SDS011;8235;52.198;9.904;2022-08-26T13:43:32;14.82;;;6.80;;
16254;SDS011;8235;52.198;9.904;2022-08-26T13:45:59;13.43;;;7.07;;
16254;SDS011;8235;52.198;9.904;2022-08-26T13:48:26;17.98;;;7.85;;
16254;SDS011;8235;52.198;9.904;2022-08-26T13:50:53;15.73;;;7.55;;
16254;SDS011;8235;52.198;9.904;2022-08-26T13:53:19;14.40;;;6.85;;
16254;SDS011;8235;52.198;9.904;2022-08-26T13:55:46;14.60;;;6.90;;
16254;SDS011;8235;52.198;9.904;2022-08-26T13:58:13;12.80;;;6.45;;
16254;SDS011;8235;52.198;9.904;2022-08-26T14:00:41;14.88;;;6.35;;
16254;SDS011;8235;52.198;9.904;2022-08-26T14:03:08;11.52;;;6.20;;
16254;SDS011;8235;52.198;9.904;2022-08-26T14:05:34;11.23;;;6.53;;
16254;SDS011;8235;52.198;9.904;2022-08-26T14:08:01;15.50;;;6.82;;
16254;SDS011;8235;52.198;9.904;2022-08-26T14:10:28;11.15;;;6.22;;
16254;SDS011;8235;52.198;9.904;2022-08-26T14:12:55;14.77;;;6.10;;
16254;SDS011;8235;52.198;9.904;2022-08-26T14:15:21;15.05;;;6.88;;
16254;SDS011;8235;52.198;9.904;2022-08-26T14:17:49;14.43;;;6.10;;
16254;SDS011;8235;52.198;9.904;2022-08-26T14:20:17;18.98;;;6.78;;
16254;SDS011;8235;52.198;9.904;2022-08-26T14:22:47;17.55;;;7.03;;
16254;SDS011;8235;52.198;9.904;2022-08-26T14:25:14;16.17;;;6.93;;
16254;SDS011;8235;52.198;9.904;2022-08-26T14:27:40;26.67;;;6.72;;
16254;SDS011;8235;52.198;9.904;2022-08-26T14:30:08;18.40;;;6.30;;
16254;SDS011;8235;52.198;9.904;2022-08-26T14:32:36;15.05;;;6.90;;
16254;SDS011;8235;52.198;9.904;2022-08-26T14:35:07;16.00;;;7.40;;
16254;SDS011;8235;52.198;9.904;2022-08-26T14:37:35;16.20;;;7.32;;
16254;SDS011;8235;52.198;9.904;2022-08-26T14:40:02;14.68;;;5.55;;
16254;SDS011;8235;52.198;9.904;2022-08-26T14:42:30;11.27;;;5.78;;
16254;SDS011;8235;52.198;9.904;2022-08-26T14:44:57;13.77;;;5.70;;
16254;SDS011;8235;52.198;9.904;2022-08-26T14:47:27;15.00;;;5.68;;
16254;SDS011;8235;52.198;9.904;2022-08-26T14:49:53;13.55;;;5.82;;
16254;SDS011;8235;52.198;9.904;2022-08-26T14:52:21;11.25;;;4.35;;
16254;SDS011;8235;52.198;9.904;2022-08-26T14:54:48;8.00;;;3.88;;
16254;SDS011;8235;52.198;9.904;2022-08-26T14:57:13;6.78;;;4.50;;
16254;SDS011;8235;52.198;9.904;2022-08-26T14:59:41;9.27;;;4.50;;
16254;SDS011;8235;52.198;9.904;2022-08-26T15:02:10;5.18;;;4.13;;